Hunters, WA (99137)

6:47 AM PDT on September 05, 2015 (GMT -0700)
Waterloo | | Change Station
CLOSE
Current Station
Personal Weather Station
Location: Rice, WA
Elevation: 2379 ft
Nearby Weather Stations

Elev 2379 ft 48.37 °N, 118.12 °W | Updated 36 seconds ago

Rain
Rain
48.0 °F
Feels Like 48 °F
N
0.0
Wind Variable Wind from East
Gusts 3.2 mph

Today
High -- | Low -- °F
--% Chance of Precip.
Yesterday
High -- | Low -- °F
Precip. -- in
6:15 AM 7:25 PM
Waning Gibbous, 48% visible
Pressure 29.84 in
Visibility 10.0 miles
Clouds Mostly Cloudy 4700 ft
Mostly Cloudy 5500 ft
Overcast 7000 ft
Windchill 48 °F
Dew Point 46 °F
Humidity 91%
Rainfall 0.05 in
Snow Depth Not available.
UV 0 out of 12
Pollen 2.10 out of 12
Air Quality Not available.
Flu Activity Not available.
METAR KDEW 051253Z AUTO 27006KT 10SM BKN047 BKN055 OVC070 09/09 A2985 RMK AO2 RAE50 SLP103 P0010 T00940089
Pressure 29.84 in
Visibility 10.0 miles
Clouds Mostly Cloudy 4700 ft
Mostly Cloudy 5500 ft
Overcast 7000 ft
Windchill 48 °F
Dew Point 46 °F
Humidity 91%
Rainfall 0.05 in
Snow Depth Not available.
UV 0 out of 12
Pollen 2.10 out of 12
Air Quality Not available.
Flu Activity Not available.
METAR KDEW 051253Z AUTO 27006KT 10SM BKN047 BKN055 OVC070 09/09 A2985 RMK AO2 RAE50 SLP103 P0010 T00940089

10-Day Weather Forecast

×

Almanac

Astronomy

Sep. 05, 2015 Rise Set
Actual Time
Civil Twilight
Nautical Twilight
Astronomical Twilight
Moon
Length of Visible Light
Length of Day
Tomorrow will be .
, % of the Moon is Illuminated

Today's Extremes

State Highs State Lows

Community

WunderPhotos

Upload Photos

1,852,464 photos uploaded!

WunderBlogs® & News

Nearby

Air Quality

  Air Quality AQ Index Pollutant
Not available.

Snow Depth

Station Depth Elevation

Earthquake Activity

City Distance Mag. Time & Date
Minimum magnitude displayed is 2.5.

Coastal Water Temperatures

Place Temperature

Stations

Nearby Weather Stations

Station Location Temp. Windchill Dew Point Humidity Wind Precip. Elev Updated Type